Cassville, Missouri
Current Conditions -  °F | °C
As of 5:15 PM on Saturday 25 Oct 2014 (Local Time) from KHFJ Reporting Station
Clear Clear  
Wind Chill: 27°   Ceiling: Unl
Heat Index: 28°   Visibility: 10mi
Dew Point: 17°   Wind: 3mph
Humidity: 54%   Direction: 210°SSW
Pressure: 30.04"   Gusts: NA
Location:  36.68°N, 93.87°W
Report Text: KHFJ 252215Z AUTO 21003KT 10SM CLR 27/17 A3004 RMK AO2
Loading
Personal Weather Stations






























Interactive Weather Map
Tropical Storm Tracking
New forecast layout! Learn more

10-Day Weather Forecast

Advertisements
Track Severe Weather on mobile